Time;durP1;ratioP1;P1;durP2;ratioP2;P2;SDS_P1;SDS_P2;PMS_P1;PMS_P2;Temp;Humidity;BMP_temperature;BMP_pressure;BME280_temperature;BME280_humidity;BME280_pressure;Samples;Min_cycle;Max_cycle;Signal;HPM_P1;HPM_P2
2022/03/09 00:00:53;;;;;;;10.03;5.30;;;;;;;-1.95;70.33;95021.50;5015996;28;20191;-63
2022/03/09 00:03:39;;;;;;;7.70;5.30;;;;;;;-1.87;71.11;95023.06;5010708;28;20196;-63
2022/03/09 00:06:25;;;;;;;6.90;4.67;;;;;;;-2.10;71.15;95014.50;5014539;28;20301;-63
2022/03/09 00:09:13;;;;;;;7.23;5.30;;;;;;;-1.97;71.31;95013.81;5020789;28;20194;-63
2022/03/09 00:11:59;;;;;;;16.03;5.83;;;;;;;-2.06;71.51;95023.31;5018473;28;20348;-64
2022/03/09 00:14:46;;;;;;;6.77;4.77;;;;;;;-2.47;71.36;95033.38;5018362;28;20313;-61
2022/03/09 00:17:33;;;;;;;6.57;4.53;;;;;;;-2.95;73.51;95034.47;5032936;28;20183;-61
2022/03/09 00:20:19;;;;;;;6.87;4.73;;;;;;;-3.05;74.38;95041.25;5029749;28;20278;-61
2022/03/09 00:23:05;;;;;;;11.73;4.63;;;;;;;-3.05;74.51;95043.16;5022030;28;20578;-60
2022/03/09 00:25:51;;;;;;;8.87;4.53;;;;;;;-3.18;74.96;95044.56;5028714;28;20215;-60
2022/03/09 00:28:37;;;;;;;6.40;4.73;;;;;;;-2.71;76.16;95044.63;5030730;28;20214;-61
2022/03/09 00:31:22;;;;;;;12.47;5.73;;;;;;;-3.03;74.68;95036.31;5030799;28;20195;-61
2022/03/09 00:34:08;;;;;;;6.87;4.60;;;;;;;-2.92;74.81;95039.09;5027970;28;20226;-61
2022/03/09 00:36:54;;;;;;;7.17;5.20;;;;;;;-2.84;76.07;95033.47;5014267;28;20692;-61
2022/03/09 00:39:40;;;;;;;9.17;5.33;;;;;;;-2.72;74.82;95043.09;5029984;28;20234;-60
2022/03/09 00:42:26;;;;;;;7.40;5.00;;;;;;;-2.50;75.51;95037.56;5030625;28;20198;-61
2022/03/09 00:45:12;;;;;;;12.83;5.10;;;;;;;-2.46;74.08;95045.59;5030085;28;20234;-60
2022/03/09 00:47:58;;;;;;;11.60;6.53;;;;;;;-2.89;74.59;95047.16;5026246;28;20199;-61
2022/03/09 00:50:45;;;;;;;9.73;5.10;;;;;;;-3.04;75.50;95040.16;5029932;28;20516;-60
2022/03/09 00:53:31;;;;;;;7.57;5.30;;;;;;;-3.14;76.35;95037.38;5021742;28;20206;-61
2022/03/09 00:56:18;;;;;;;10.20;5.43;;;;;;;-2.91;76.33;95036.06;5027892;28;20222;-60
2022/03/09 00:59:04;;;;;;;5.90;4.67;;;;;;;-3.05;75.77;95033.25;5027087;28;20209;-60
2022/03/09 01:01:50;;;;;;;7.70;5.23;;;;;;;-2.77;77.08;95032.75;5030364;28;20600;-61
2022/03/09 01:04:36;;;;;;;7.43;4.90;;;;;;;-2.62;76.00;95029.84;5027481;28;20588;-60
2022/03/09 01:07:22;;;;;;;6.47;4.63;;;;;;;-2.77;76.25;95032.75;5035093;28;20233;-60
2022/03/09 01:10:08;;;;;;;7.93;4.60;;;;;;;-3.10;76.42;95032.81;5050528;28;20556;-60
2022/03/09 01:12:54;;;;;;;7.03;4.67;;;;;;;-3.44;78.89;95020.63;5026324;28;20245;-61
2022/03/09 01:15:40;;;;;;;6.90;4.87;;;;;;;-3.22;80.73;95030.41;5010929;28;20243;-60
2022/03/09 01:18:26;;;;;;;7.30;5.20;;;;;;;-3.13;78.47;95023.63;5019436;28;20198;-60
2022/03/09 01:21:12;;;;;;;8.20;5.07;;;;;;;-3.04;79.14;95026.78;5030349;28;20278;-61
2022/03/09 01:23:58;;;;;;;9.07;5.00;;;;;;;-3.48;78.69;95017.94;5028186;28;20326;-61
2022/03/09 01:26:44;;;;;;;6.80;5.33;;;;;;;-3.72;79.77;95021.84;5024731;28;20222;-60
2022/03/09 01:29:30;;;;;;;7.87;5.13;;;;;;;-3.71;80.68;95010.06;5028276;28;20682;-60
2022/03/09 01:32:16;;;;;;;11.37;5.30;;;;;;;-3.76;80.89;95023.72;5024867;28;20274;-60
2022/03/09 01:35:03;;;;;;;8.63;5.30;;;;;;;-3.60;81.44;95026.19;5013110;28;20308;-60
2022/03/09 01:37:49;;;;;;;8.13;5.60;;;;;;;-3.95;82.17;95021.19;5029579;28;20188;-60
2022/03/09 01:40:35;;;;;;;6.37;4.97;;;;;;;-3.67;83.00;95028.00;5028444;28;20281;-61
2022/03/09 01:43:21;;;;;;;9.57;4.87;;;;;;;-3.66;81.30;95019.63;5028684;28;20632;-61
2022/03/09 01:46:07;;;;;;;5.43;4.27;;;;;;;-3.68;82.23;95021.13;5013622;28;20211;-64
2022/03/09 01:48:53;;;;;;;8.30;5.23;;;;;;;-3.99;82.58;95019.59;5011402;28;20191;-64
2022/03/09 01:51:42;;;;;;;6.30;4.93;;;;;;;-4.04;83.51;95067.91;5011332;28;20188;-64
2022/03/09 01:54:29;;;;;;;9.07;5.00;;;;;;;-3.96;84.11;95016.22;5010522;28;20716;-64
2022/03/09 01:57:15;;;;;;;8.27;4.63;;;;;;;-3.84;83.13;95014.09;5022276;28;20194;-64
2022/03/09 02:00:01;;;;;;;8.53;5.27;;;;;;;-3.44;83.71;95000.03;5029584;28;20210;-63
2022/03/09 02:02:47;;;;;;;7.23;5.00;;;;;;;-3.38;82.89;95003.94;5025613;28;20206;-64
2022/03/09 02:05:34;;;;;;;6.83;4.83;;;;;;;-3.27;80.64;95018.16;5026468;28;20612;-64
2022/03/09 02:11:26;;;;;;;9.03;5.37;;;;;;;-3.68;81.57;95013.13;5029623;28;20266;-64
2022/03/09 02:14:35;;;;;;;7.13;5.20;;;;;;;-4.03;83.21;95016.88;5025429;28;20277;-64
2022/03/09 02:17:26;;;;;;;8.13;5.10;;;;;;;-4.20;85.00;95024.66;5029227;28;20650;-64
2022/03/09 02:20:12;;;;;;;8.27;5.50;;;;;;;-4.07;84.92;95025.94;5028602;28;20186;-64
2022/03/09 02:22:58;;;;;;;7.33;5.00;;;;;;;-3.86;84.22;95015.56;5027604;28;20277;-64
2022/03/09 02:25:44;;;;;;;6.17;4.97;;;;;;;-4.36;86.25;95014.13;5024584;28;20246;-64
2022/03/09 02:28:30;;;;;;;7.90;5.83;;;;;;;-4.36;86.64;95016.81;5028465;28;20198;-64
2022/03/09 02:31:16;;;;;;;8.70;5.40;;;;;;;-4.23;85.97;95020.81;5025324;28;20638;-64
2022/03/09 02:34:02;;;;;;;6.57;5.00;;;;;;;-4.22;85.00;95017.00;5027186;28;20314;-64
2022/03/09 02:36:48;;;;;;;7.93;4.97;;;;;;;-4.13;88.41;95024.75;5030008;28;20193;-64
2022/03/09 02:39:36;;;;;;;8.87;5.50;;;;;;;-4.42;87.06;95014.81;5029379;28;20263;-64
2022/03/09 02:42:21;;;;;;;8.00;4.47;;;;;;;-4.42;87.77;95014.81;5029516;28;20191;-64
2022/03/09 02:45:08;;;;;;;7.73;5.20;;;;;;;-4.22;87.38;95016.22;5013012;28;20223;-64
2022/03/09 02:47:54;;;;;;;6.90;5.17;;;;;;;-4.22;86.34;95026.91;5028465;28;20195;-64
2022/03/09 02:50:40;;;;;;;9.03;5.53;;;;;;;-4.41;87.06;95029.69;5028867;28;20195;-64
2022/03/09 02:53:26;;;;;;;9.33;5.70;;;;;;;-4.52;87.78;95013.53;5025022;28;20203;-64
2022/03/09 02:56:12;;;;;;;9.53;5.30;;;;;;;-4.67;89.05;95009.13;5022596;28;20233;-64
2022/03/09 02:58:58;;;;;;;6.77;5.07;;;;;;;-4.65;88.90;95001.56;5028256;28;20252;-64
2022/03/09 03:01:44;;;;;;;8.23;5.53;;;;;;;-4.45;87.48;94995.00;5028504;28;20203;-64
2022/03/09 03:04:30;;;;;;;8.47;5.73;;;;;;;-4.69;88.51;95000.72;5007206;28;20223;-64
2022/03/09 03:07:16;;;;;;;10.30;5.33;;;;;;;-4.78;89.55;95005.50;5028376;28;20276;-64
2022/03/09 03:10:04;;;;;;;8.33;5.17;;;;;;;-4.85;90.25;94994.00;5026505;28;20544;-64
2022/03/09 03:12:50;;;;;;;10.80;6.13;;;;;;;-4.44;91.41;94995.75;5014984;28;20565;-64
2022/03/09 03:15:36;;;;;;;8.60;5.13;;;;;;;-4.37;88.31;94999.28;5029794;28;20698;-64
2022/03/09 03:18:22;;;;;;;8.03;5.60;;;;;;;-4.88;89.80;95008.00;5031297;28;20269;-64
2022/03/09 03:21:08;;;;;;;10.13;5.87;;;;;;;-4.90;90.62;95007.63;5029408;28;20542;-64
2022/03/09 03:23:54;;;;;;;8.50;5.90;;;;;;;-4.56;93.18;95014.59;5030234;28;20207;-64
2022/03/09 03:26:40;;;;;;;8.13;5.47;;;;;;;-4.12;90.23;95019.03;5028111;28;20234;-64
2022/03/09 03:29:25;;;;;;;9.43;5.53;;;;;;;-4.28;89.90;95015.00;5031099;28;20195;-64
2022/03/09 03:32:11;;;;;;;9.03;6.23;;;;;;;-4.26;88.96;95004.78;5032367;28;20213;-64
2022/03/09 03:34:57;;;;;;;7.47;5.60;;;;;;;-4.06;86.99;95004.28;5013948;28;20254;-64
2022/03/09 03:37:43;;;;;;;10.07;5.57;;;;;;;-4.66;87.47;95001.88;5032141;28;20199;-64
2022/03/09 03:40:29;;;;;;;7.47;5.70;;;;;;;-4.90;91.38;95010.28;5031095;28;20193;-64
2022/03/09 03:43:15;;;;;;;8.03;5.03;;;;;;;-4.91;91.77;95006.84;5029540;28;20277;-63
2022/03/09 03:46:01;;;;;;;9.60;5.57;;;;;;;-5.08;92.92;95016.06;5032570;28;20819;-63
2022/03/09 03:48:47;;;;;;;8.33;5.57;;;;;;;-5.23;93.95;95018.84;5032855;28;20187;-62
2022/03/09 03:51:33;;;;;;;12.63;6.53;;;;;;;-5.12;94.59;95017.13;5031604;28;20187;-63
2022/03/09 03:54:19;;;;;;;8.97;5.63;;;;;;;-5.15;93.88;95023.16;5018313;28;20281;-63
2022/03/09 03:57:05;;;;;;;10.67;6.03;;;;;;;-5.08;94.07;95026.72;5027124;28;20191;-63
2022/03/09 03:59:51;;;;;;;8.27;5.53;;;;;;;-5.23;94.55;95043.56;5032427;28;20199;-63
2022/03/09 04:02:37;;;;;;;8.77;5.63;;;;;;;-5.30;97.02;95040.78;5033052;28;20346;-63
2022/03/09 04:05:23;;;;;;;7.80;5.60;;;;;;;-4.90;95.90;95039.56;5023871;28;20219;-63
2022/03/09 04:08:09;;;;;;;8.63;6.47;;;;;;;-4.76;94.35;95048.53;5031590;28;20206;-63
2022/03/09 04:10:55;;;;;;;8.47;5.67;;;;;;;-4.72;93.65;95059.25;5025002;28;20721;-63
2022/03/09 04:13:42;;;;;;;8.13;6.67;;;;;;;-4.58;94.51;95051.50;5027261;28;20191;-63
2022/03/09 04:16:28;;;;;;;9.90;5.90;;;;;;;-4.56;93.66;95062.56;5031543;28;20614;-63
2022/03/09 04:19:14;;;;;;;9.37;6.37;;;;;;;-4.69;93.75;95069.19;5031851;28;20207;-63
2022/03/09 04:22:01;;;;;;;8.63;6.83;;;;;;;-4.63;94.69;95070.47;5031816;28;20221;-63
2022/03/09 04:24:47;;;;;;;7.70;5.83;;;;;;;-4.57;92.47;95071.69;5014855;28;20250;-63
2022/03/09 04:27:33;;;;;;;8.80;6.30;;;;;;;-4.74;92.40;95083.59;5027467;28;20341;-63
2022/03/09 04:30:19;;;;;;;9.07;5.60;;;;;;;-4.86;92.75;95083.78;5030243;28;20187;-63
2022/03/09 04:33:06;;;;;;;7.57;5.27;;;;;;;-4.63;93.33;95087.19;5027043;28;20199;-63
2022/03/09 04:35:52;;;;;;;9.97;6.90;;;;;;;-4.41;93.31;95086.41;5009239;28;20202;-64
2022/03/09 04:38:37;;;;;;;7.40;5.83;;;;;;;-4.32;91.73;95092.25;5028656;28;20191;-63
2022/03/09 04:41:23;;;;;;;10.37;6.40;;;;;;;-4.51;92.00;95088.94;5031795;28;20276;-64
2022/03/09 04:44:09;;;;;;;8.67;6.10;;;;;;;-4.43;92.55;95109.22;5014601;28;20743;-63
2022/03/09 04:46:55;;;;;;;9.27;5.87;;;;;;;-4.46;93.96;95102.69;5017065;28;20223;-63
2022/03/09 04:49:41;;;;;;;7.80;6.73;;;;;;;-4.41;94.45;95085.66;5029247;28;20267;-64
2022/03/09 04:52:27;;;;;;;10.63;6.87;;;;;;;-4.41;94.55;95115.72;5024996;28;20736;-61
2022/03/09 04:55:13;;;;;;;12.77;6.13;;;;;;;-4.36;93.27;95098.69;5026615;28;20221;-60
2022/03/09 04:57:59;;;;;;;9.50;6.23;;;;;;;-4.45;93.26;95106.13;5014424;28;20210;-61
2022/03/09 05:00:45;;;;;;;9.50;6.07;;;;;;;-4.46;93.35;95092.03;5029252;28;20203;-60
2022/03/09 05:03:32;;;;;;;9.70;6.57;;;;;;;-4.65;94.75;95088.69;5027991;28;20508;-61
2022/03/09 05:06:18;;;;;;;10.53;6.97;;;;;;;-4.48;98.01;95104.94;5010140;28;20322;-61
2022/03/09 05:09:04;;;;;;;9.87;6.27;;;;;;;-4.95;99.24;95101.84;5030242;28;20222;-61
2022/03/09 05:11:50;;;;;;;12.90;6.37;;;;;;;-5.10;100.00;95103.50;5017391;28;20199;-64
2022/03/09 05:14:36;;;;;;;9.53;7.13;;;;;;;-5.08;100.00;95111.13;5010121;28;20219;-63
2022/03/09 05:17:22;;;;;;;8.80;6.67;;;;;;;-5.06;100.00;95109.66;5031475;28;20202;-63
2022/03/09 05:20:09;;;;;;;10.50;6.53;;;;;;;-5.04;100.00;95107.41;5029647;28;20203;-65
2022/03/09 05:22:55;;;;;;;9.43;6.90;;;;;;;-5.12;100.00;95118.28;5022559;28;20276;-63
2022/03/09 05:25:41;;;;;;;12.77;7.87;;;;;;;-5.03;100.00;95122.28;5015684;28;20391;-63
2022/03/09 05:28:27;;;;;;;12.97;7.67;;;;;;;-5.00;100.00;95126.13;5022479;28;20277;-63
2022/03/09 05:31:13;;;;;;;15.63;8.77;;;;;;;-4.99;100.00;95125.75;5029401;28;20191;-63
2022/03/09 05:33:59;;;;;;;9.80;7.10;;;;;;;-5.06;100.00;95159.47;5024730;28;20234;-63
2022/03/09 05:36:45;;;;;;;12.20;7.53;;;;;;;-4.88;100.00;95128.63;5030705;28;20202;-63
2022/03/09 05:39:31;;;;;;;10.70;7.27;;;;;;;-4.73;100.00;95129.66;5014032;28;20191;-63
2022/03/09 05:42:17;;;;;;;10.07;6.60;;;;;;;-4.89;100.00;95139.63;5027891;28;20195;-63
2022/03/09 05:45:05;;;;;;;12.57;7.53;;;;;;;-4.69;100.00;95138.47;5023543;28;20214;-63
2022/03/09 05:47:51;;;;;;;11.13;7.93;;;;;;;-4.71;99.68;95143.38;5024169;28;20250;-64
2022/03/09 05:50:37;;;;;;;15.37;8.23;;;;;;;-4.58;100.00;95144.75;5030199;28;20189;-63
2022/03/09 05:53:22;;;;;;;11.57;7.83;;;;;;;-4.87;100.00;95156.81;5030622;28;20685;-63
2022/03/09 05:56:08;;;;;;;9.63;6.93;;;;;;;-4.78;100.00;95152.00;5025439;28;20288;-63
2022/03/09 05:58:54;;;;;;;9.80;7.13;;;;;;;-4.63;100.00;95156.47;5029354;28;20203;-63
2022/03/09 06:01:40;;;;;;;14.13;8.53;;;;;;;-4.78;100.00;95156.56;5029214;28;20296;-63
2022/03/09 06:04:26;;;;;;;12.33;7.30;;;;;;;-5.11;100.00;95155.19;5026978;28;20244;-63
2022/03/09 06:07:12;;;;;;;9.50;6.70;;;;;;;-5.08;100.00;95148.41;5012117;28;20223;-63
2022/03/09 06:09:58;;;;;;;8.83;6.47;;;;;;;-5.12;100.00;95159.00;5023250;28;20195;-63
2022/03/09 06:12:45;;;;;;;9.63;6.73;;;;;;;-5.19;100.00;95153.53;5015988;28;20321;-63
2022/03/09 06:15:31;;;;;;;10.63;7.13;;;;;;;-4.84;100.00;95150.78;5017190;28;20222;-63
2022/03/09 06:18:19;;;;;;;12.30;7.10;;;;;;;-4.99;100.00;95162.28;5028309;28;20198;-63
2022/03/09 06:21:05;;;;;;;13.50;7.33;;;;;;;-5.16;100.00;95141.41;5028516;28;20198;-63
2022/03/09 06:23:50;;;;;;;10.53;7.20;;;;;;;-5.15;100.00;95159.69;5024815;28;20303;-63
2022/03/09 06:26:37;;;;;;;23.83;7.23;;;;;;;-4.99;100.00;95165.69;5025939;28;20227;-63
2022/03/09 06:29:23;;;;;;;11.00;6.93;;;;;;;-4.74;100.00;95170.72;5028427;28;20565;-64
2022/03/09 06:32:09;;;;;;;9.53;7.10;;;;;;;-4.87;100.00;95164.03;5009910;28;20194;-63
2022/03/09 06:34:55;;;;;;;26.23;7.33;;;;;;;-4.73;100.00;95170.38;5023225;28;20215;-63
2022/03/09 06:37:41;;;;;;;18.40;7.33;;;;;;;-4.21;100.00;95161.75;5013424;28;20658;-63
2022/03/09 06:40:27;;;;;;;14.23;7.77;;;;;;;-4.20;99.03;95165.94;5029818;28;20195;-63
2022/03/09 06:43:13;;;;;;;9.70;7.47;;;;;;;-4.19;100.00;95159.50;5026660;28;20735;-63
2022/03/09 06:45:59;;;;;;;11.03;7.73;;;;;;;-4.23;100.00;95143.44;5018455;28;20187;-63
2022/03/09 06:48:45;;;;;;;10.40;7.20;;;;;;;-4.14;100.00;95151.19;5029031;28;20202;-64
2022/03/09 06:51:31;;;;;;;14.13;7.37;;;;;;;-3.66;100.00;95150.38;5021059;28;20594;-63
2022/03/09 06:54:17;;;;;;;11.50;7.63;;;;;;;-3.29;98.94;95143.22;5024760;28;20246;-63
2022/03/09 06:57:03;;;;;;;10.87;7.93;;;;;;;-2.88;97.86;95152.88;5030327;28;20210;-63
2022/03/09 06:59:49;;;;;;;10.83;7.60;;;;;;;-2.66;93.90;95149.31;5031336;28;20191;-63
2022/03/09 07:02:35;;;;;;;10.30;7.03;;;;;;;-2.28;92.29;95148.13;5033259;28;20190;-64
2022/03/09 07:05:21;;;;;;;10.43;7.70;;;;;;;-2.07;89.04;95152.91;5029388;28;20215;-63
2022/03/09 07:08:07;;;;;;;10.17;7.30;;;;;;;-1.96;86.86;95135.78;5023707;28;20230;-63
2022/03/09 07:10:53;;;;;;;13.57;7.57;;;;;;;-1.86;84.88;95145.00;5016988;28;20201;-64
2022/03/09 07:13:40;;;;;;;12.53;8.07;;;;;;;-1.68;85.52;95140.56;5030666;28;20203;-63
2022/03/09 07:16:26;;;;;;;11.07;7.30;;;;;;;-1.69;85.16;95137.13;5032639;28;20195;-64
2022/03/09 07:19:13;;;;;;;12.87;7.53;;;;;;;-1.51;84.73;95132.63;5032359;28;20203;-63
2022/03/09 07:21:58;;;;;;;10.50;7.50;;;;;;;-1.47;84.00;95132.66;5026278;28;20217;-63
2022/03/09 07:24:44;;;;;;;12.33;7.20;;;;;;;-1.40;84.27;95138.81;5030847;28;20219;-64
2022/03/09 07:27:30;;;;;;;14.13;8.50;;;;;;;-1.19;84.12;95132.81;5018976;28;20222;-63
2022/03/09 07:30:17;;;;;;;13.73;7.63;;;;;;;-1.13;84.69;95125.94;5017358;28;20199;-63
2022/03/09 07:33:03;;;;;;;12.70;8.47;;;;;;;-0.95;89.01;95132.09;5031497;28;20194;-63
2022/03/09 07:35:49;;;;;;;9.67;7.47;;;;;;;-0.80;89.46;95143.66;5024791;28;20242;-64
2022/03/09 07:38:38;;;;;;;13.23;8.10;;;;;;;-0.60;90.35;95151.00;5032559;28;20191;-63
2022/03/09 07:41:24;;;;;;;13.57;8.13;;;;;;;-0.47;94.09;95157.53;5030986;28;20192;-63
2022/03/09 07:44:10;;;;;;;9.97;7.83;;;;;;;-0.41;94.01;95158.69;5014704;28;20705;-63
2022/03/09 07:46:56;;;;;;;10.37;7.53;;;;;;;-0.20;93.76;95161.41;5026260;28;20219;-63
2022/03/09 07:49:42;;;;;;;12.70;8.20;;;;;;;-0.28;94.87;95167.94;5030566;28;20279;-63
2022/03/09 07:52:28;;;;;;;10.13;6.73;;;;;;;-0.27;92.29;95169.47;5030508;28;20199;-63
2022/03/09 07:55:14;;;;;;;10.00;6.80;;;;;;;-0.20;89.24;95171.38;5030812;28;20214;-63
2022/03/09 07:58:00;;;;;;;10.53;7.50;;;;;;;0.03;89.55;95166.44;5031770;28;20218;-64
2022/03/09 08:00:46;;;;;;;11.33;7.77;;;;;;;0.13;90.40;95184.47;5016410;28;20222;-63
2022/03/09 08:03:32;;;;;;;9.97;7.17;;;;;;;0.27;90.38;95171.03;5026798;28;20273;-63
2022/03/09 08:06:18;;;;;;;12.17;8.53;;;;;;;0.52;91.14;95177.16;5028394;28;20697;-64
2022/03/09 08:09:04;;;;;;;13.50;8.90;;;;;;;0.64;96.97;95173.28;5025124;28;20281;-64
2022/03/09 08:11:50;;;;;;;14.57;9.70;;;;;;;0.69;100.00;95167.53;5018501;28;20199;-63
2022/03/09 08:14:37;;;;;;;13.77;9.53;;;;;;;0.70;100.00;95177.09;5019582;28;20238;-63
2022/03/09 08:17:23;;;;;;;16.83;9.40;;;;;;;0.95;100.00;95183.22;5015937;28;20199;-64
2022/03/09 08:20:10;;;;;;;12.40;9.43;;;;;;;0.97;98.58;95170.13;5029203;28;20187;-64
2022/03/09 08:22:56;;;;;;;12.27;8.23;;;;;;;1.36;92.11;95189.59;5026468;28;20199;-63
2022/03/09 08:25:41;;;;;;;10.67;7.60;;;;;;;1.51;78.26;95182.22;5026463;28;20215;-63
2022/03/09 08:28:27;;;;;;;12.47;7.37;;;;;;;1.84;72.50;95185.13;5031188;28;20538;-64
2022/03/09 08:31:13;;;;;;;13.23;6.97;;;;;;;1.95;63.90;95190.44;5030676;28;20205;-65
2022/03/09 08:33:59;;;;;;;7.63;5.90;;;;;;;2.08;60.78;95189.59;5028419;28;20234;-61
2022/03/09 08:36:45;;;;;;;11.50;6.07;;;;;;;2.34;59.93;95190.94;5015572;28;20199;-61
2022/03/09 08:39:31;;;;;;;10.87;6.00;;;;;;;2.48;57.46;95199.66;5030096;28;20202;-61
2022/03/09 08:42:18;;;;;;;10.80;6.73;;;;;;;2.57;57.96;95206.53;5015987;28;20719;-61
2022/03/09 08:45:04;;;;;;;9.50;6.07;;;;;;;2.72;57.72;95197.13;5026004;28;20215;-61
2022/03/09 08:47:50;;;;;;;10.30;6.33;;;;;;;2.89;56.67;95201.59;5011013;28;20246;-60
2022/03/09 08:50:36;;;;;;;8.93;6.23;;;;;;;2.96;56.25;95201.53;5009652;28;20219;-61
2022/03/09 08:53:22;;;;;;;10.93;6.57;;;;;;;3.16;56.75;95199.78;5025728;28;20203;-61
2022/03/09 08:56:10;;;;;;;11.00;7.27;;;;;;;3.28;55.26;95196.56;5025831;28;20293;-60
2022/03/09 08:58:56;;;;;;;9.17;6.97;;;;;;;3.49;54.76;95204.44;5029718;28;20199;-61
2022/03/09 09:01:42;;;;;;;11.70;6.40;;;;;;;3.65;54.09;95202.66;5030774;28;20217;-61
2022/03/09 09:04:28;;;;;;;8.00;6.43;;;;;;;3.81;53.37;95198.63;5012589;28;20215;-61
2022/03/09 09:07:14;;;;;;;14.47;7.10;;;;;;;4.07;53.77;95201.34;5028312;28;20210;-61
2022/03/09 09:10:00;;;;;;;9.27;6.03;;;;;;;4.09;54.23;95206.34;5028788;28;20257;-61
2022/03/09 09:12:46;;;;;;;8.77;6.43;;;;;;;4.44;53.07;95206.59;5029395;28;20195;-61
2022/03/09 09:15:32;;;;;;;13.40;7.37;;;;;;;4.69;53.37;95198.06;5027417;28;20223;-61
2022/03/09 09:18:18;;;;;;;9.67;6.73;;;;;;;4.84;52.19;95207.47;5016459;28;20187;-61
2022/03/09 09:21:05;;;;;;;10.93;5.60;;;;;;;4.66;45.03;95188.84;5027235;28;20213;-61
2022/03/09 09:23:50;;;;;;;8.60;6.33;;;;;;;4.97;48.60;95195.63;5026063;28;20215;-61
2022/03/09 09:26:36;;;;;;;9.90;6.07;;;;;;;5.38;52.67;95187.13;5025722;28;20234;-61
2022/03/09 09:29:22;;;;;;;7.77;6.13;;;;;;;5.74;45.45;95184.47;5030213;28;20195;-61
2022/03/09 09:32:08;;;;;;;7.57;6.13;;;;;;;5.81;43.17;95187.03;5011408;28;20195;-61
2022/03/09 09:34:54;;;;;;;8.50;6.53;;;;;;;5.78;42.05;95183.25;5026051;28;20218;-64
2022/03/09 09:37:42;;;;;;;11.53;6.23;;;;;;;5.83;41.60;95187.44;5026787;28;20191;-64
2022/03/09 09:40:31;;;;;;;7.40;5.90;;;;;;;5.91;41.50;95181.44;5014730;28;20698;-64
2022/03/09 09:43:17;;;;;;;7.80;6.00;;;;;;;6.26;40.01;95177.19;5012129;28;20192;-64
2022/03/09 09:46:03;;;;;;;9.00;5.83;;;;;;;6.19;37.66;95180.06;5029439;28;20575;-65
2022/03/09 09:48:49;;;;;;;6.67;5.30;;;;;;;6.38;37.55;95183.88;5030332;28;20629;-64
2022/03/09 09:51:37;;;;;;;7.20;5.13;;;;;;;6.61;38.31;95170.91;5026813;28;20191;-64
2022/03/09 09:54:23;;;;;;;9.97;5.60;;;;;;;6.78;35.41;95174.38;5018964;28;20384;-64
2022/03/09 09:57:12;;;;;;;6.00;5.40;;;;;;;6.83;33.13;95176.56;5026735;28;20229;-65
2022/03/09 09:59:58;;;;;;;7.03;5.20;;;;;;;6.67;33.47;95179.31;5030242;28;20238;-64
2022/03/09 10:02:44;;;;;;;7.07;4.80;;;;;;;6.89;33.68;95167.47;5014541;28;20698;-64
2022/03/09 10:05:32;;;;;;;8.77;5.00;;;;;;;6.92;32.96;95174.78;5024299;28;20216;-64
2022/03/09 10:08:18;;;;;;;6.97;4.87;;;;;;;6.84;32.28;95165.28;5015965;28;20198;-64
2022/03/09 10:11:05;;;;;;;6.03;4.33;;;;;;;6.87;33.56;95161.72;5029482;28;20670;-64
2022/03/09 10:13:51;;;;;;;6.50;4.97;;;;;;;7.05;31.69;95162.03;5013991;28;20278;-64
2022/03/09 10:16:37;;;;;;;6.10;4.93;;;;;;;7.27;30.43;95162.22;5029024;28;20203;-64
2022/03/09 10:19:32;;;;;;;6.00;4.77;;;;;;;7.38;29.47;95179.03;5013004;28;20587;-64
2022/03/09 10:22:34;;;;;;;5.97;4.93;;;;;;;7.36;30.15;95165.84;5026881;28;20289;-64
2022/03/09 10:25:23;;;;;;;6.47;5.20;;;;;;;7.36;30.63;95171.28;5011067;28;20280;-64
2022/03/09 10:28:12;;;;;;;7.97;5.80;;;;;;;7.57;30.74;95171.91;5027191;28;20257;-64
2022/03/09 10:30:58;;;;;;;11.03;5.47;;;;;;;7.65;31.26;95159.63;5032436;28;20199;-64
2022/03/09 10:33:44;;;;;;;8.57;5.57;;;;;;;7.81;30.23;95173.13;5027514;28;20604;-64
2022/03/09 10:36:30;;;;;;;6.80;5.77;;;;;;;7.81;30.47;95163.03;5032356;28;20199;-64
2022/03/09 10:39:17;;;;;;;7.47;6.50;;;;;;;7.97;31.14;95171.13;5032811;28;20195;-65
2022/03/09 10:42:03;;;;;;;7.10;5.80;;;;;;;7.86;31.16;95161.72;5030120;28;20300;-64
2022/03/09 10:44:51;;;;;;;6.43;5.80;;;;;;;7.78;31.06;95163.91;5030804;28;20210;-64
2022/03/09 10:47:41;;;;;;;6.90;5.90;;;;;;;8.16;30.15;95163.94;5033327;28;20218;-64
2022/03/09 10:50:30;;;;;;;5.77;5.13;;;;;;;8.16;30.60;95166.66;5012151;28;20208;-64
2022/03/09 10:53:16;;;;;;;7.90;5.23;;;;;;;8.22;30.36;95162.19;5026993;28;20199;-64
2022/03/09 10:56:02;;;;;;;7.43;6.13;;;;;;;8.29;29.59;95156.56;5018167;28;20211;-64
2022/03/09 10:58:48;;;;;;;8.63;5.97;;;;;;;8.41;29.65;95156.56;5031665;28;20729;-64
2022/03/09 11:01:34;;;;;;;7.47;5.87;;;;;;;8.44;28.77;95163.84;5033274;28;20191;-64
2022/03/09 11:04:20;;;;;;;6.97;5.67;;;;;;;8.46;28.63;95155.25;5026713;28;20215;-65
2022/03/09 11:07:09;;;;;;;6.90;5.80;;;;;;;8.79;28.73;95153.03;5025449;28;20650;-64
2022/03/09 11:09:55;;;;;;;8.80;5.73;;;;;;;8.41;30.02;95148.41;5032457;28;20278;-64
2022/03/09 11:12:41;;;;;;;7.00;5.70;;;;;;;8.31;30.20;95146.75;5029976;28;20669;-64
2022/03/09 11:15:28;;;;;;;7.97;5.83;;;;;;;8.57;30.42;95146.75;5018884;28;20207;-64
2022/03/09 11:18:21;;;;;;;8.57;6.33;;;;;;;8.79;30.27;95145.59;5031760;28;20183;-64
2022/03/09 11:21:10;;;;;;;10.97;6.20;;;;;;;8.65;29.51;95139.88;5015900;28;20229;-64
2022/03/09 11:23:57;;;;;;;6.57;5.80;;;;;;;8.56;30.56;95148.72;5015874;28;20222;-64
2022/03/09 11:27:01;;;;;;;10.97;6.03;;;;;;;8.62;31.07;95146.19;5029847;28;20215;-63
2022/03/09 11:29:47;;;;;;;7.60;6.20;;;;;;;8.71;30.94;95144.31;5016933;28;20294;-64
2022/03/09 11:32:35;;;;;;;9.07;6.13;;;;;;;8.77;31.30;95136.38;5032530;28;20191;-64
2022/03/09 11:35:34;;;;;;;6.73;5.60;;;;;;;8.88;31.66;95132.09;5025060;28;20215;-64
2022/03/09 11:38:55;;;;;;;8.33;6.13;;;;;;;8.94;31.55;95130.34;5015041;28;20233;-64
2022/03/09 11:41:41;;;;;;;13.30;6.17;;;;;;;9.00;30.69;95130.50;5029548;28;20256;-64
2022/03/09 11:44:29;;;;;;;8.37;6.40;;;;;;;9.16;30.99;95127.63;5023741;28;20241;-64
2022/03/09 11:47:17;;;;;;;7.17;5.60;;;;;;;9.15;31.06;95123.38;5030866;28;20798;-65
2022/03/09 11:50:06;;;;;;;7.23;6.50;;;;;;;9.11;30.86;95120.78;5029546;28;20222;-65
2022/03/09 11:52:58;;;;;;;7.00;5.80;;;;;;;9.28;31.17;95121.38;5014089;28;20207;-65
2022/03/09 11:55:44;;;;;;;6.70;5.73;;;;;;;9.44;31.07;95116.50;5026522;28;20219;-65
2022/03/09 11:58:30;;;;;;;9.47;6.20;;;;;;;9.43;31.23;95112.25;5024887;28;20203;-64
2022/03/09 12:01:16;;;;;;;8.60;6.10;;;;;;;9.59;31.40;95105.81;5012576;28;20257;-64
2022/03/09 12:04:02;;;;;;;8.57;6.10;;;;;;;9.58;31.32;95101.56;5031818;28;20702;-64
2022/03/09 12:06:51;;;;;;;7.27;5.70;;;;;;;9.42;33.00;95101.78;5026553;28;20215;-64
2022/03/09 12:10:06;;;;;;;7.80;6.00;;;;;;;9.72;32.51;95090.16;5030361;28;20203;-64
2022/03/09 12:13:11;;;;;;;10.27;5.50;;;;;;;9.65;28.12;95093.88;5030263;28;20211;-64
2022/03/09 12:16:04;;;;;;;6.73;5.57;;;;;;;9.45;32.65;95106.34;5021743;28;20218;-64
2022/03/09 12:18:56;;;;;;;10.67;6.40;;;;;;;9.25;32.94;95100.44;5031412;28;20222;-65
2022/03/09 12:21:50;;;;;;;9.53;6.03;;;;;;;9.35;34.70;95096.59;5031645;28;20226;-64
2022/03/09 12:24:39;;;;;;;8.37;6.13;;;;;;;9.48;32.32;95095.31;5021558;28;20222;-64
2022/03/09 12:27:27;;;;;;;7.63;6.07;;;;;;;9.64;31.90;95100.56;5027025;28;20245;-65
2022/03/09 12:30:38;;;;;;;10.13;6.00;;;;;;;9.81;31.45;95094.91;5014664;28;20210;-65
2022/03/09 12:33:26;;;;;;;8.17;6.17;;;;;;;9.70;30.93;95098.00;5026788;28;20215;-66
2022/03/09 12:36:14;;;;;;;9.20;5.60;;;;;;;10.11;29.63;95094.16;5030040;28;20225;-65
2022/03/09 12:39:04;;;;;;;7.77;5.70;;;;;;;9.99;28.21;95087.56;5028847;28;20786;-65
2022/03/09 12:42:00;;;;;;;6.53;5.80;;;;;;;9.91;27.15;95089.00;5029712;28;20253;-65
2022/03/09 12:44:47;;;;;;;12.50;6.10;;;;;;;9.77;26.71;95084.84;5022337;28;20223;-65
2022/03/09 12:47:35;;;;;;;7.47;5.43;;;;;;;9.68;28.61;95092.25;5022575;28;20210;-64
2022/03/09 12:50:22;;;;;;;9.43;5.90;;;;;;;9.86;28.19;95083.41;5015386;28;20187;-62
2022/03/09 12:53:09;;;;;;;6.30;5.23;;;;;;;10.04;28.05;95081.50;5026289;28;20991;-65
2022/03/09 12:55:55;;;;;;;7.80;5.50;;;;;;;10.15;25.91;95083.84;5020250;28;20302;-65
2022/03/09 12:58:42;;;;;;;8.50;6.13;;;;;;;10.15;27.31;95079.16;5020101;28;20667;-65
2022/03/09 13:01:27;;;;;;;9.67;5.07;;;;;;;10.35;31.68;95082.22;5029904;28;20290;-65
2022/03/09 13:04:13;;;;;;;6.97;4.67;;;;;;;10.19;25.13;95071.59;5026467;28;20598;-65
2022/03/09 13:07:13;;;;;;;6.07;5.30;;;;;;;10.04;26.59;95067.09;5024395;28;20215;-65